sensor_id;sensor_type;location;lat;lon;timestamp;temperature;humidity
71173;DHT22;58875;51.996;4.504;2023-05-13T00:00:40;16.88;71.66
71173;DHT22;58875;51.996;4.504;2023-05-13T00:03:05;16.90;71.31
71173;DHT22;58875;51.996;4.504;2023-05-13T00:05:31;16.91;70.98
71173;DHT22;58875;51.996;4.504;2023-05-13T00:07:56;16.91;70.60
71173;DHT22;58875;51.996;4.504;2023-05-13T00:10:26;16.90;69.73
71173;DHT22;58875;51.996;4.504;2023-05-13T00:12:52;16.88;69.24
71173;DHT22;58875;51.996;4.504;2023-05-13T00:15:17;16.90;68.32
71173;DHT22;58875;51.996;4.504;2023-05-13T00:17:43;16.94;67.83
71173;DHT22;58875;51.996;4.504;2023-05-13T00:20:09;16.97;67.52
71173;DHT22;58875;51.996;4.504;2023-05-13T00:22:34;17.00;66.17
71173;DHT22;58875;51.996;4.504;2023-05-13T00:25:00;17.03;65.96
71173;DHT22;58875;51.996;4.504;2023-05-13T00:27:25;17.01;65.27
71173;DHT22;58875;51.996;4.504;2023-05-13T00:29:51;17.00;65.27
71173;DHT22;58875;51.996;4.504;2023-05-13T00:32:16;17.04;65.32
71173;DHT22;58875;51.996;4.504;2023-05-13T00:34:42;17.01;64.72
71173;DHT22;58875;51.996;4.504;2023-05-13T00:37:07;17.00;63.81
71173;DHT22;58875;51.996;4.504;2023-05-13T00:39:34;17.01;63.69
71173;DHT22;58875;51.996;4.504;2023-05-13T00:42:00;16.97;63.64
71173;DHT22;58875;51.996;4.504;2023-05-13T00:44:27;16.97;62.77
71173;DHT22;58875;51.996;4.504;2023-05-13T00:46:53;16.99;62.42
71173;DHT22;58875;51.996;4.504;2023-05-13T00:49:18;17.01;62.63
71173;DHT22;58875;51.996;4.504;2023-05-13T00:51:44;17.01;62.87
71173;DHT22;58875;51.996;4.504;2023-05-13T00:54:10;17.06;62.65
71173;DHT22;58875;51.996;4.504;2023-05-13T00:56:37;17.03;63.00
71173;DHT22;58875;51.996;4.504;2023-05-13T00:59:03;17.01;62.43
71173;DHT22;58875;51.996;4.504;2023-05-13T01:04:20;17.03;62.30
71173;DHT22;58875;51.996;4.504;2023-05-13T01:09:59;17.00;62.13
71173;DHT22;58875;51.996;4.504;2023-05-13T01:12:37;16.95;62.38
71173;DHT22;58875;51.996;4.504;2023-05-13T01:15:11;16.94;62.38
71173;DHT22;58875;51.996;4.504;2023-05-13T01:20:21;16.85;62.94
71173;DHT22;58875;51.996;4.504;2023-05-13T01:22:48;16.87;63.03
71173;DHT22;58875;51.996;4.504;2023-05-13T01:25:13;16.83;63.71
71173;DHT22;58875;51.996;4.504;2023-05-13T01:27:40;16.76;64.61
71173;DHT22;58875;51.996;4.504;2023-05-13T01:30:07;16.71;65.51
71173;DHT22;58875;51.996;4.504;2023-05-13T01:32:34;16.66;66.21
71173;DHT22;58875;51.996;4.504;2023-05-13T01:35:01;16.52;66.90
71173;DHT22;58875;51.996;4.504;2023-05-13T01:37:27;16.45;67.29
71173;DHT22;58875;51.996;4.504;2023-05-13T01:39:54;16.40;67.39
71173;DHT22;58875;51.996;4.504;2023-05-13T01:42:22;16.33;67.90
71173;DHT22;58875;51.996;4.504;2023-05-13T01:44:48;16.28;68.27
71173;DHT22;58875;51.996;4.504;2023-05-13T01:47:13;16.16;68.29
71173;DHT22;58875;51.996;4.504;2023-05-13T01:49:39;16.06;68.53
71173;DHT22;58875;51.996;4.504;2023-05-13T01:52:05;15.98;68.68
71173;DHT22;58875;51.996;4.504;2023-05-13T01:54:31;15.90;68.62
71173;DHT22;58875;51.996;4.504;2023-05-13T01:56:56;15.81;68.75
71173;DHT22;58875;51.996;4.504;2023-05-13T01:59:22;15.78;68.30
71173;DHT22;58875;51.996;4.504;2023-05-13T02:01:47;15.67;68.70
71173;DHT22;58875;51.996;4.504;2023-05-13T02:04:13;15.57;68.75
71173;DHT22;58875;51.996;4.504;2023-05-13T02:06:38;15.41;69.00
71173;DHT22;58875;51.996;4.504;2023-05-13T02:09:04;15.36;69.44
71173;DHT22;58875;51.996;4.504;2023-05-13T02:11:30;15.27;69.55
71173;DHT22;58875;51.996;4.504;2023-05-13T02:13:55;15.26;69.47
71173;DHT22;58875;51.996;4.504;2023-05-13T02:16:21;15.14;69.84
71173;DHT22;58875;51.996;4.504;2023-05-13T02:18:49;15.10;69.60
71173;DHT22;58875;51.996;4.504;2023-05-13T02:21:14;15.00;69.70
71173;DHT22;58875;51.996;4.504;2023-05-13T02:23:40;14.93;69.75
71173;DHT22;58875;51.996;4.504;2023-05-13T02:26:05;14.85;69.34
71173;DHT22;58875;51.996;4.504;2023-05-13T02:28:31;14.80;69.75
71173;DHT22;58875;51.996;4.504;2023-05-13T02:30:56;14.78;69.28
71173;DHT22;58875;51.996;4.504;2023-05-13T02:33:22;14.76;69.00
71173;DHT22;58875;51.996;4.504;2023-05-13T02:35:47;14.62;69.04
71173;DHT22;58875;51.996;4.504;2023-05-13T02:38:13;14.61;68.93
71173;DHT22;58875;51.996;4.504;2023-05-13T02:40:39;14.59;68.73
71173;DHT22;58875;51.996;4.504;2023-05-13T02:43:04;14.57;68.37
71173;DHT22;58875;51.996;4.504;2023-05-13T02:45:30;14.58;68.36
71173;DHT22;58875;51.996;4.504;2023-05-13T02:47:55;14.55;68.21
71173;DHT22;58875;51.996;4.504;2023-05-13T02:50:21;14.46;68.11
71173;DHT22;58875;51.996;4.504;2023-05-13T02:52:47;14.39;68.21
71173;DHT22;58875;51.996;4.504;2023-05-13T02:55:13;14.44;68.20
71173;DHT22;58875;51.996;4.504;2023-05-13T02:57:38;14.41;68.01
71173;DHT22;58875;51.996;4.504;2023-05-13T03:00:05;14.38;68.08
71173;DHT22;58875;51.996;4.504;2023-05-13T03:02:32;14.31;68.38
71173;DHT22;58875;51.996;4.504;2023-05-13T03:05:00;14.25;68.50
71173;DHT22;58875;51.996;4.504;2023-05-13T03:07:26;14.16;68.45
71173;DHT22;58875;51.996;4.504;2023-05-13T03:09:51;14.14;68.48
71173;DHT22;58875;51.996;4.504;2023-05-13T03:12:17;14.16;68.94
71173;DHT22;58875;51.996;4.504;2023-05-13T03:14:43;14.20;68.39
71173;DHT22;58875;51.996;4.504;2023-05-13T03:17:09;14.13;68.14
71173;DHT22;58875;51.996;4.504;2023-05-13T03:19:37;14.20;67.54
71173;DHT22;58875;51.996;4.504;2023-05-13T03:22:03;14.14;67.35
71173;DHT22;58875;51.996;4.504;2023-05-13T03:24:28;14.21;67.68
71173;DHT22;58875;51.996;4.504;2023-05-13T03:26:57;14.24;67.48
71173;DHT22;58875;51.996;4.504;2023-05-13T03:29:23;14.17;67.51
71173;DHT22;58875;51.996;4.504;2023-05-13T03:31:49;14.13;67.46
71173;DHT22;58875;51.996;4.504;2023-05-13T03:34:15;14.21;67.46
71173;DHT22;58875;51.996;4.504;2023-05-13T03:36:41;14.22;67.65
71173;DHT22;58875;51.996;4.504;2023-05-13T03:39:07;14.16;67.56
71173;DHT22;58875;51.996;4.504;2023-05-13T03:41:33;14.22;67.93
71173;DHT22;58875;51.996;4.504;2023-05-13T03:43:59;14.16;67.72
71173;DHT22;58875;51.996;4.504;2023-05-13T03:46:24;14.16;68.15
71173;DHT22;58875;51.996;4.504;2023-05-13T03:48:52;14.14;68.05
71173;DHT22;58875;51.996;4.504;2023-05-13T03:51:17;14.16;68.13
71173;DHT22;58875;51.996;4.504;2023-05-13T03:53:43;14.08;68.30
71173;DHT22;58875;51.996;4.504;2023-05-13T03:56:08;14.10;68.38
71173;DHT22;58875;51.996;4.504;2023-05-13T03:58:34;14.18;67.96
71173;DHT22;58875;51.996;4.504;2023-05-13T04:01:00;14.14;68.26
71173;DHT22;58875;51.996;4.504;2023-05-13T04:03:25;14.13;68.42
71173;DHT22;58875;51.996;4.504;2023-05-13T04:05:51;14.11;68.76
71173;DHT22;58875;51.996;4.504;2023-05-13T04:08:16;14.11;68.72
71173;DHT22;58875;51.996;4.504;2023-05-13T04:10:42;14.04;68.97
71173;DHT22;58875;51.996;4.504;2023-05-13T04:13:08;14.04;69.29
71173;DHT22;58875;51.996;4.504;2023-05-13T04:15:34;14.04;69.43
71173;DHT22;58875;51.996;4.504;2023-05-13T04:17:59;14.01;69.34
71173;DHT22;58875;51.996;4.504;2023-05-13T04:20:25;13.90;69.91
71173;DHT22;58875;51.996;4.504;2023-05-13T04:22:51;13.89;70.04
71173;DHT22;58875;51.996;4.504;2023-05-13T04:25:16;13.91;70.13
71173;DHT22;58875;51.996;4.504;2023-05-13T04:27:42;13.96;70.03
71173;DHT22;58875;51.996;4.504;2023-05-13T04:30:09;13.97;69.92
71173;DHT22;58875;51.996;4.504;2023-05-13T04:32:35;13.97;70.20
71173;DHT22;58875;51.996;4.504;2023-05-13T04:35:01;13.89;70.56
71173;DHT22;58875;51.996;4.504;2023-05-13T04:37:26;13.89;70.97
71173;DHT22;58875;51.996;4.504;2023-05-13T04:39:52;13.86;71.15
71173;DHT22;58875;51.996;4.504;2023-05-13T04:42:17;13.86;71.31
71173;DHT22;58875;51.996;4.504;2023-05-13T04:44:43;13.84;71.63
71173;DHT22;58875;51.996;4.504;2023-05-13T04:47:09;13.90;71.86
71173;DHT22;58875;51.996;4.504;2023-05-13T04:49:34;13.93;72.08
71173;DHT22;58875;51.996;4.504;2023-05-13T04:52:01;13.91;72.16
71173;DHT22;58875;51.996;4.504;2023-05-13T04:54:27;13.96;72.27
71173;DHT22;58875;51.996;4.504;2023-05-13T04:56:53;13.97;72.34
71173;DHT22;58875;51.996;4.504;2023-05-13T04:59:18;13.90;72.79
71173;DHT22;58875;51.996;4.504;2023-05-13T05:01:44;13.97;72.91
71173;DHT22;58875;51.996;4.504;2023-05-13T05:04:11;13.99;72.98
71173;DHT22;58875;51.996;4.504;2023-05-13T05:06:36;13.94;73.27
71173;DHT22;58875;51.996;4.504;2023-05-13T05:09:02;13.96;73.62
71173;DHT22;58875;51.996;4.504;2023-05-13T05:11:28;14.00;73.64
71173;DHT22;58875;51.996;4.504;2023-05-13T05:13:53;14.01;73.83
71173;DHT22;58875;51.996;4.504;2023-05-13T05:16:19;14.07;73.90
71173;DHT22;58875;51.996;4.504;2023-05-13T05:18:44;14.07;73.95
71173;DHT22;58875;51.996;4.504;2023-05-13T05:21:10;14.10;74.08
71173;DHT22;58875;51.996;4.504;2023-05-13T05:23:36;14.14;74.15
71173;DHT22;58875;51.996;4.504;2023-05-13T05:26:02;14.14;74.12
71173;DHT22;58875;51.996;4.504;2023-05-13T05:28:28;14.13;74.38
71173;DHT22;58875;51.996;4.504;2023-05-13T05:30:54;14.14;74.54
71173;DHT22;58875;51.996;4.504;2023-05-13T05:33:20;14.18;74.41
71173;DHT22;58875;51.996;4.504;2023-05-13T05:35:45;14.17;74.67
71173;DHT22;58875;51.996;4.504;2023-05-13T05:38:11;14.24;74.67
71173;DHT22;58875;51.996;4.504;2023-05-13T05:40:41;14.31;74.50
71173;DHT22;58875;51.996;4.504;2023-05-13T05:43:08;14.32;74.34
71173;DHT22;58875;51.996;4.504;2023-05-13T05:45:38;14.35;74.44
71173;DHT22;58875;51.996;4.504;2023-05-13T05:48:05;14.42;74.60
71173;DHT22;58875;51.996;4.504;2023-05-13T05:50:32;14.51;74.20
71173;DHT22;58875;51.996;4.504;2023-05-13T05:52:59;14.46;74.26
71173;DHT22;58875;51.996;4.504;2023-05-13T05:55:25;14.48;74.23
71173;DHT22;58875;51.996;4.504;2023-05-13T05:57:53;14.46;74.12
71173;DHT22;58875;51.996;4.504;2023-05-13T06:00:19;14.55;74.29
71173;DHT22;58875;51.996;4.504;2023-05-13T06:02:44;14.64;74.09
71173;DHT22;58875;51.996;4.504;2023-05-13T06:05:10;14.73;74.13
71173;DHT22;58875;51.996;4.504;2023-05-13T06:07:36;14.79;73.82
71173;DHT22;58875;51.996;4.504;2023-05-13T06:10:02;14.85;73.62
71173;DHT22;58875;51.996;4.504;2023-05-13T06:12:28;14.99;73.33
71173;DHT22;58875;51.996;4.504;2023-05-13T06:14:53;15.07;72.93
71173;DHT22;58875;51.996;4.504;2023-05-13T06:17:19;15.16;72.56
71173;DHT22;58875;51.996;4.504;2023-05-13T06:19:44;15.19;72.27
71173;DHT22;58875;51.996;4.504;2023-05-13T06:22:10;15.33;72.03
71173;DHT22;58875;51.996;4.504;2023-05-13T06:24:37;15.54;71.60
71173;DHT22;58875;51.996;4.504;2023-05-13T06:27:03;15.65;71.37
71173;DHT22;58875;51.996;4.504;2023-05-13T06:29:29;15.78;70.52
71173;DHT22;58875;51.996;4.504;2023-05-13T06:31:55;15.95;70.12
71173;DHT22;58875;51.996;4.504;2023-05-13T06:34:21;16.06;69.94
71173;DHT22;58875;51.996;4.504;2023-05-13T06:36:46;16.18;69.43
71173;DHT22;58875;51.996;4.504;2023-05-13T06:39:12;16.42;68.82
71173;DHT22;58875;51.996;4.504;2023-05-13T06:41:39;16.71;67.90
71173;DHT22;58875;51.996;4.504;2023-05-13T06:44:05;17.10;66.59
71173;DHT22;58875;51.996;4.504;2023-05-13T06:46:32;17.18;66.28
71173;DHT22;58875;51.996;4.504;2023-05-13T06:48:57;17.12;66.04
71173;DHT22;58875;51.996;4.504;2023-05-13T06:51:24;17.01;66.70
71173;DHT22;58875;51.996;4.504;2023-05-13T06:53:53;16.99;67.16
71173;DHT22;58875;51.996;4.504;2023-05-13T06:56:19;17.07;67.41
71173;DHT22;58875;51.996;4.504;2023-05-13T06:58:50;17.30;66.16
71173;DHT22;58875;51.996;4.504;2023-05-13T07:01:17;17.31;66.21
71173;DHT22;58875;51.996;4.504;2023-05-13T07:03:42;17.39;66.15
71173;DHT22;58875;51.996;4.504;2023-05-13T07:06:09;17.43;66.29
71173;DHT22;58875;51.996;4.504;2023-05-13T07:08:35;17.56;65.31
71173;DHT22;58875;51.996;4.504;2023-05-13T07:11:00;17.59;65.27
71173;DHT22;58875;51.996;4.504;2023-05-13T07:13:26;17.72;64.57
71173;DHT22;58875;51.996;4.504;2023-05-13T07:15:54;17.87;64.37
71173;DHT22;58875;51.996;4.504;2023-05-13T07:18:20;17.90;64.02
71173;DHT22;58875;51.996;4.504;2023-05-13T07:20:45;18.02;64.39
71173;DHT22;58875;51.996;4.504;2023-05-13T07:23:11;18.26;63.43
71173;DHT22;58875;51.996;4.504;2023-05-13T07:25:37;18.40;62.70
71173;DHT22;58875;51.996;4.504;2023-05-13T07:28:03;18.48;62.49
71173;DHT22;58875;51.996;4.504;2023-05-13T07:30:28;18.30;62.26
71173;DHT22;58875;51.996;4.504;2023-05-13T07:32:54;18.23;61.33
71173;DHT22;58875;51.996;4.504;2023-05-13T07:35:20;18.20;62.08
71173;DHT22;58875;51.996;4.504;2023-05-13T07:37:45;18.43;61.85
71173;DHT22;58875;51.996;4.504;2023-05-13T07:40:11;18.57;60.85
71173;DHT22;58875;51.996;4.504;2023-05-13T07:42:39;18.87;60.01
71173;DHT22;58875;51.996;4.504;2023-05-13T07:45:06;18.99;60.10
71173;DHT22;58875;51.996;4.504;2023-05-13T07:47:32;19.32;59.69
71173;DHT22;58875;51.996;4.504;2023-05-13T07:49:58;19.49;58.29
71173;DHT22;58875;51.996;4.504;2023-05-13T07:52:23;19.53;57.98
71173;DHT22;58875;51.996;4.504;2023-05-13T07:54:49;19.57;57.56
71173;DHT22;58875;51.996;4.504;2023-05-13T07:57:15;19.75;58.21
71173;DHT22;58875;51.996;4.504;2023-05-13T07:59:40;19.81;57.54
71173;DHT22;58875;51.996;4.504;2023-05-13T08:02:06;19.85;56.72
71173;DHT22;58875;51.996;4.504;2023-05-13T08:04:33;19.90;56.15
71173;DHT22;58875;51.996;4.504;2023-05-13T08:07:00;19.87;56.69
71173;DHT22;58875;51.996;4.504;2023-05-13T08:09:26;19.98;55.41
71173;DHT22;58875;51.996;4.504;2023-05-13T08:11:52;20.14;56.20
71173;DHT22;58875;51.996;4.504;2023-05-13T08:14:19;20.14;55.21
71173;DHT22;58875;51.996;4.504;2023-05-13T08:16:45;20.14;56.30
71173;DHT22;58875;51.996;4.504;2023-05-13T08:19:13;20.18;55.91
71173;DHT22;58875;51.996;4.504;2023-05-13T08:21:39;20.36;55.50
71173;DHT22;58875;51.996;4.504;2023-05-13T08:24:04;20.39;54.90
71173;DHT22;58875;51.996;4.504;2023-05-13T08:26:31;20.44;55.10
71173;DHT22;58875;51.996;4.504;2023-05-13T08:28:57;20.35;54.82
71173;DHT22;58875;51.996;4.504;2023-05-13T08:31:23;20.48;55.22
71173;DHT22;58875;51.996;4.504;2023-05-13T08:33:52;20.56;54.60
71173;DHT22;58875;51.996;4.504;2023-05-13T08:36:19;20.59;54.92
71173;DHT22;58875;51.996;4.504;2023-05-13T08:38:44;20.89;54.34
71173;DHT22;58875;51.996;4.504;2023-05-13T08:41:14;21.00;52.36
71173;DHT22;58875;51.996;4.504;2023-05-13T08:43:42;21.14;53.45
71173;DHT22;58875;51.996;4.504;2023-05-13T08:46:09;21.35;52.41
71173;DHT22;58875;51.996;4.504;2023-05-13T08:48:37;21.44;51.10
71173;DHT22;58875;51.996;4.504;2023-05-13T08:51:03;21.28;51.63
71173;DHT22;58875;51.996;4.504;2023-05-13T08:53:29;21.17;52.71
71173;DHT22;58875;51.996;4.504;2023-05-13T08:55:56;21.35;52.40
71173;DHT22;58875;51.996;4.504;2023-05-13T08:58:22;21.58;51.74
71173;DHT22;58875;51.996;4.504;2023-05-13T09:00:48;21.77;50.50
71173;DHT22;58875;51.996;4.504;2023-05-13T09:03:14;21.75;50.53
71173;DHT22;58875;51.996;4.504;2023-05-13T09:05:43;21.85;51.31
71173;DHT22;58875;51.996;4.504;2023-05-13T09:08:09;21.98;50.24
71173;DHT22;58875;51.996;4.504;2023-05-13T09:10:36;21.81;49.32
71173;DHT22;58875;51.996;4.504;2023-05-13T09:13:02;21.65;49.83
71173;DHT22;58875;51.996;4.504;2023-05-13T09:15:28;21.58;49.51
71173;DHT22;58875;51.996;4.504;2023-05-13T09:17:57;21.75;50.36
71173;DHT22;58875;51.996;4.504;2023-05-13T09:20:24;21.78;49.30
71173;DHT22;58875;51.996;4.504;2023-05-13T09:23:11;21.86;50.28
71173;DHT22;58875;51.996;4.504;2023-05-13T09:25:37;21.94;49.48
71173;DHT22;58875;51.996;4.504;2023-05-13T09:28:05;21.79;49.69
71173;DHT22;58875;51.996;4.504;2023-05-13T09:33:17;21.78;48.50
71173;DHT22;58875;51.996;4.504;2023-05-13T09:35:51;21.81;49.02
71173;DHT22;58875;51.996;4.504;2023-05-13T09:38:19;22.08;48.53
71173;DHT22;58875;51.996;4.504;2023-05-13T09:40:56;21.98;48.20
71173;DHT22;58875;51.996;4.504;2023-05-13T09:43:25;21.98;47.29
71173;DHT22;58875;51.996;4.504;2023-05-13T09:45:56;21.98;48.95
71173;DHT22;58875;51.996;4.504;2023-05-13T09:48:24;22.12;50.26
71173;DHT22;58875;51.996;4.504;2023-05-13T09:50:50;22.32;49.08
71173;DHT22;58875;51.996;4.504;2023-05-13T09:53:17;22.29;47.60
71173;DHT22;58875;51.996;4.504;2023-05-13T09:55:52;22.15;48.89
71173;DHT22;58875;51.996;4.504;2023-05-13T09:58:19;22.12;48.70
71173;DHT22;58875;51.996;4.504;2023-05-13T10:00:45;22.26;48.41
71173;DHT22;58875;51.996;4.504;2023-05-13T10:03:13;22.29;47.46
71173;DHT22;58875;51.996;4.504;2023-05-13T10:05:40;22.33;47.24
71173;DHT22;58875;51.996;4.504;2023-05-13T10:08:11;22.46;48.93
71173;DHT22;58875;51.996;4.504;2023-05-13T10:10:38;22.64;47.30
71173;DHT22;58875;51.996;4.504;2023-05-13T10:13:14;22.53;47.04
71173;DHT22;58875;51.996;4.504;2023-05-13T10:15:53;22.36;47.40
71173;DHT22;58875;51.996;4.504;2023-05-13T10:18:20;22.35;46.96
71173;DHT22;58875;51.996;4.504;2023-05-13T10:20:47;22.56;46.24
71173;DHT22;58875;51.996;4.504;2023-05-13T10:23:18;22.76;46.47
71173;DHT22;58875;51.996;4.504;2023-05-13T10:25:46;22.76;45.76
71173;DHT22;58875;51.996;4.504;2023-05-13T10:28:13;22.70;46.84
71173;DHT22;58875;51.996;4.504;2023-05-13T10:30:40;22.80;47.53
71173;DHT22;58875;51.996;4.504;2023-05-13T10:33:06;23.03;47.00
71173;DHT22;58875;51.996;4.504;2023-05-13T10:35:36;23.12;46.69
71173;DHT22;58875;51.996;4.504;2023-05-13T10:38:09;23.05;46.12
71173;DHT22;58875;51.996;4.504;2023-05-13T10:40:58;23.04;44.88
71173;DHT22;58875;51.996;4.504;2023-05-13T10:43:30;22.93;45.37
71173;DHT22;58875;51.996;4.504;2023-05-13T10:46:05;23.00;45.13
71173;DHT22;58875;51.996;4.504;2023-05-13T10:48:46;23.04;45.22
71173;DHT22;58875;51.996;4.504;2023-05-13T10:51:14;23.17;45.71
71173;DHT22;58875;51.996;4.504;2023-05-13T10:53:48;23.28;43.93
71173;DHT22;58875;51.996;4.504;2023-05-13T10:56:16;23.15;45.06
71173;DHT22;58875;51.996;4.504;2023-05-13T10:58:56;23.37;46.02
71173;DHT22;58875;51.996;4.504;2023-05-13T11:01:28;23.48;45.46
71173;DHT22;58875;51.996;4.504;2023-05-13T11:03:56;23.49;47.66
71173;DHT22;58875;51.996;4.504;2023-05-13T11:06:25;23.42;44.60
71173;DHT22;58875;51.996;4.504;2023-05-13T11:08:53;23.55;47.27
71173;DHT22;58875;51.996;4.504;2023-05-13T11:11:24;23.76;44.82
71173;DHT22;58875;51.996;4.504;2023-05-13T11:14:06;23.63;45.15
71173;DHT22;58875;51.996;4.504;2023-05-13T11:16:35;23.39;46.66
71173;DHT22;58875;51.996;4.504;2023-05-13T11:19:03;23.51;47.46
71173;DHT22;58875;51.996;4.504;2023-05-13T11:21:34;23.83;45.90
71173;DHT22;58875;51.996;4.504;2023-05-13T11:24:05;23.66;45.23
71173;DHT22;58875;51.996;4.504;2023-05-13T11:29:47;23.72;45.61
71173;DHT22;58875;51.996;4.504;2023-05-13T11:32:13;23.75;44.57
71173;DHT22;58875;51.996;4.504;2023-05-13T11:34:49;23.70;44.14
71173;DHT22;58875;51.996;4.504;2023-05-13T11:37:16;23.62;43.55
71173;DHT22;58875;51.996;4.504;2023-05-13T11:39:42;23.75;43.51
71173;DHT22;58875;51.996;4.504;2023-05-13T11:42:09;23.85;44.45
71173;DHT22;58875;51.996;4.504;2023-05-13T11:44:36;23.92;43.65
71173;DHT22;58875;51.996;4.504;2023-05-13T11:47:09;23.97;42.43
71173;DHT22;58875;51.996;4.504;2023-05-13T11:49:40;24.00;44.33
71173;DHT22;58875;51.996;4.504;2023-05-13T11:54:32;24.58;44.36
71173;DHT22;58875;51.996;4.504;2023-05-13T11:57:04;24.54;43.69
71173;DHT22;58875;51.996;4.504;2023-05-13T11:59:29;24.38;42.92
71173;DHT22;58875;51.996;4.504;2023-05-13T12:02:01;24.37;42.55
71173;DHT22;58875;51.996;4.504;2023-05-13T12:04:30;24.27;44.94
71173;DHT22;58875;51.996;4.504;2023-05-13T12:06:56;24.41;41.45
71173;DHT22;58875;51.996;4.504;2023-05-13T12:09:23;24.13;43.50
71173;DHT22;58875;51.996;4.504;2023-05-13T12:11:52;24.24;44.09
71173;DHT22;58875;51.996;4.504;2023-05-13T12:14:19;24.36;41.87
71173;DHT22;58875;51.996;4.504;2023-05-13T12:16:46;24.36;42.40
71173;DHT22;58875;51.996;4.504;2023-05-13T12:19:11;24.34;42.18
71173;DHT22;58875;51.996;4.504;2023-05-13T12:21:37;24.24;42.31
71173;DHT22;58875;51.996;4.504;2023-05-13T12:24:21;24.30;44.78
71173;DHT22;58875;51.996;4.504;2023-05-13T12:26:47;24.68;43.28
71173;DHT22;58875;51.996;4.504;2023-05-13T12:29:13;24.94;42.75
71173;DHT22;58875;51.996;4.504;2023-05-13T12:31:41;24.89;42.91
71173;DHT22;58875;51.996;4.504;2023-05-13T12:34:07;24.81;41.73
71173;DHT22;58875;51.996;4.504;2023-05-13T12:36:37;24.71;41.78
71173;DHT22;58875;51.996;4.504;2023-05-13T12:39:08;24.63;41.25
71173;DHT22;58875;51.996;4.504;2023-05-13T12:41:38;24.84;42.04
71173;DHT22;58875;51.996;4.504;2023-05-13T12:44:12;24.79;42.54
71173;DHT22;58875;51.996;4.504;2023-05-13T12:46:50;24.84;42.28
71173;DHT22;58875;51.996;4.504;2023-05-13T12:49:16;24.86;41.98
71173;DHT22;58875;51.996;4.504;2023-05-13T12:51:42;24.92;43.16
71173;DHT22;58875;51.996;4.504;2023-05-13T12:54:10;24.72;42.66
71173;DHT22;58875;51.996;4.504;2023-05-13T12:56:36;24.65;42.84
71173;DHT22;58875;51.996;4.504;2023-05-13T12:59:04;24.60;43.73
71173;DHT22;58875;51.996;4.504;2023-05-13T13:01:30;24.41;41.24
71173;DHT22;58875;51.996;4.504;2023-05-13T13:03:56;24.47;47.12
71173;DHT22;58875;51.996;4.504;2023-05-13T13:06:21;24.50;51.97
71173;DHT22;58875;51.996;4.504;2023-05-13T13:08:47;24.45;52.97
71173;DHT22;58875;51.996;4.504;2023-05-13T13:11:12;24.43;52.82
71173;DHT22;58875;51.996;4.504;2023-05-13T13:13:44;24.41;53.41
71173;DHT22;58875;51.996;4.504;2023-05-13T13:16:09;24.47;52.95
71173;DHT22;58875;51.996;4.504;2023-05-13T13:18:35;24.50;52.34
71173;DHT22;58875;51.996;4.504;2023-05-13T13:21:01;24.30;52.35
71173;DHT22;58875;51.996;4.504;2023-05-13T13:23:27;24.24;53.76
71173;DHT22;58875;51.996;4.504;2023-05-13T13:25:52;24.18;53.68
71173;DHT22;58875;51.996;4.504;2023-05-13T13:28:18;24.07;54.53
71173;DHT22;58875;51.996;4.504;2023-05-13T13:30:43;23.85;54.22
71173;DHT22;58875;51.996;4.504;2023-05-13T13:33:15;23.82;53.96
71173;DHT22;58875;51.996;4.504;2023-05-13T13:35:45;24.02;54.67
71173;DHT22;58875;51.996;4.504;2023-05-13T13:38:12;24.16;54.10
71173;DHT22;58875;51.996;4.504;2023-05-13T13:40:38;24.17;53.45
71173;DHT22;58875;51.996;4.504;2023-05-13T13:43:07;23.90;55.03
71173;DHT22;58875;51.996;4.504;2023-05-13T13:45:33;23.92;55.74
71173;DHT22;58875;51.996;4.504;2023-05-13T13:47:59;23.96;54.86
71173;DHT22;58875;51.996;4.504;2023-05-13T13:50:25;23.87;55.51
71173;DHT22;58875;51.996;4.504;2023-05-13T13:52:51;23.76;56.16
71173;DHT22;58875;51.996;4.504;2023-05-13T13:55:20;23.73;55.60
71173;DHT22;58875;51.996;4.504;2023-05-13T13:57:46;23.80;56.58
71173;DHT22;58875;51.996;4.504;2023-05-13T14:00:13;23.80;55.41
71173;DHT22;58875;51.996;4.504;2023-05-13T14:02:40;23.80;56.30
71173;DHT22;58875;51.996;4.504;2023-05-13T14:05:06;23.86;55.22
71173;DHT22;58875;51.996;4.504;2023-05-13T14:07:31;23.73;55.42
71173;DHT22;58875;51.996;4.504;2023-05-13T14:09:57;23.63;56.26
71173;DHT22;58875;51.996;4.504;2023-05-13T14:12:22;23.79;54.80
71173;DHT22;58875;51.996;4.504;2023-05-13T14:14:48;23.80;56.67
71173;DHT22;58875;51.996;4.504;2023-05-13T14:17:13;23.75;56.64
71173;DHT22;58875;51.996;4.504;2023-05-13T14:19:39;23.77;55.44
71173;DHT22;58875;51.996;4.504;2023-05-13T14:22:05;23.85;54.96
71173;DHT22;58875;51.996;4.504;2023-05-13T14:24:30;23.83;55.28
71173;DHT22;58875;51.996;4.504;2023-05-13T14:26:57;23.89;55.08
71173;DHT22;58875;51.996;4.504;2023-05-13T14:29:24;23.83;54.02
71173;DHT22;58875;51.996;4.504;2023-05-13T14:31:50;23.76;54.73
71173;DHT22;58875;51.996;4.504;2023-05-13T14:34:15;23.66;54.62
71173;DHT22;58875;51.996;4.504;2023-05-13T14:36:41;23.49;55.29
71173;DHT22;58875;51.996;4.504;2023-05-13T14:39:06;23.79;55.10
71173;DHT22;58875;51.996;4.504;2023-05-13T14:41:37;23.85;53.48
71173;DHT22;58875;51.996;4.504;2023-05-13T14:44:05;23.67;53.83
71173;DHT22;58875;51.996;4.504;2023-05-13T14:46:30;23.63;56.48
71173;DHT22;58875;51.996;4.504;2023-05-13T14:48:58;23.67;55.55
71173;DHT22;58875;51.996;4.504;2023-05-13T14:51:24;23.42;56.26
71173;DHT22;58875;51.996;4.504;2023-05-13T14:53:49;23.31;57.02
71173;DHT22;58875;51.996;4.504;2023-05-13T14:56:15;23.17;56.87
71173;DHT22;58875;51.996;4.504;2023-05-13T14:58:40;23.19;57.90
71173;DHT22;58875;51.996;4.504;2023-05-13T15:01:06;23.24;56.40
71173;DHT22;58875;51.996;4.504;2023-05-13T15:03:32;23.01;56.39
71173;DHT22;58875;51.996;4.504;2023-05-13T15:05:57;22.93;58.05
71173;DHT22;58875;51.996;4.504;2023-05-13T15:08:23;22.66;57.91
71173;DHT22;58875;51.996;4.504;2023-05-13T15:10:49;22.64;57.60
71173;DHT22;58875;51.996;4.504;2023-05-13T15:13:15;22.56;58.33
71173;DHT22;58875;51.996;4.504;2023-05-13T15:15:41;22.66;58.53
71173;DHT22;58875;51.996;4.504;2023-05-13T15:18:06;22.70;57.65
71173;DHT22;58875;51.996;4.504;2023-05-13T15:20:32;22.54;57.91
71173;DHT22;58875;51.996;4.504;2023-05-13T15:22:57;22.52;57.79
71173;DHT22;58875;51.996;4.504;2023-05-13T15:25:23;22.45;58.88
71173;DHT22;58875;51.996;4.504;2023-05-13T15:27:50;22.40;57.62
71173;DHT22;58875;51.996;4.504;2023-05-13T15:30:16;22.32;58.27
71173;DHT22;58875;51.996;4.504;2023-05-13T15:32:41;22.46;58.33
71173;DHT22;58875;51.996;4.504;2023-05-13T15:35:07;22.46;58.07
71173;DHT22;58875;51.996;4.504;2023-05-13T15:37:33;22.49;57.69
71173;DHT22;58875;51.996;4.504;2023-05-13T15:40:01;22.30;59.15
71173;DHT22;58875;51.996;4.504;2023-05-13T15:42:27;22.42;60.03
71173;DHT22;58875;51.996;4.504;2023-05-13T15:44:53;22.54;58.94